createdAt,value
2023-04-21T00:00:54.769Z,96602.97
2023-04-21T00:03:44.177Z,96609.47
2023-04-21T00:06:33.125Z,96608.78
2023-04-21T00:09:21.718Z,96604.88
2023-04-21T00:12:10.318Z,96606.63
2023-04-21T00:15:00.195Z,96605.22
2023-04-21T00:17:48.610Z,96619.03
2023-04-21T00:20:37.046Z,96617.94
2023-04-21T00:23:25.372Z,96609.28
2023-04-21T00:26:13.815Z,96600.91
2023-04-21T00:29:05.291Z,96606.63
2023-04-21T00:31:55.088Z,96600.59
2023-04-21T00:34:43.555Z,96603.34
2023-04-21T00:37:33.972Z,96599.22
2023-04-21T00:40:22.556Z,96594.84
2023-04-21T00:43:10.970Z,96590.75
2023-04-21T00:45:59.275Z,96597.72
2023-04-21T00:48:48.957Z,96595.75
2023-04-21T00:51:38.448Z,96589.84
2023-04-21T00:54:27.025Z,96594.59
2023-04-21T00:57:15.472Z,96584.50
2023-04-21T01:00:05.798Z,96578.47
2023-04-21T01:02:54.284Z,96575.34
2023-04-21T01:05:44.243Z,96569.97
2023-04-21T01:08:33.494Z,96573.63
2023-04-21T01:11:21.885Z,96579.44
2023-04-21T01:14:10.238Z,96583.84
2023-04-21T01:16:59.513Z,96571.81
2023-04-21T01:19:47.931Z,96580.25
2023-04-21T01:22:38.548Z,96581.06
2023-04-21T01:25:28.590Z,96575.44
2023-04-21T01:28:22.854Z,96571.81
2023-04-21T01:31:11.436Z,96583.16
2023-04-21T01:34:04.661Z,96580.66
2023-04-21T01:36:53.036Z,96568.00
2023-04-21T01:39:44.077Z,96589.47
2023-04-21T01:42:34.209Z,96577.19
2023-04-21T01:45:22.885Z,96573.91
2023-04-21T01:48:11.338Z,96568.56
2023-04-21T01:51:01.301Z,96559.38
2023-04-21T01:53:49.777Z,96559.25
2023-04-21T01:56:40.161Z,96562.41
2023-04-21T01:59:28.584Z,96566.47
2023-04-21T02:02:16.987Z,96568.63
2023-04-21T02:05:06.108Z,96579.06
2023-04-21T02:07:54.863Z,96580.91
2023-04-21T02:10:44.144Z,96580.31
2023-04-21T02:13:35.914Z,96585.41
2023-04-21T02:16:26.303Z,96590.38
2023-04-21T02:19:14.837Z,96592.78
2023-04-21T02:22:04.084Z,96605.53
2023-04-21T02:24:52.777Z,96598.00
2023-04-21T02:27:41.195Z,96601.00
2023-04-21T02:30:31.010Z,96602.88
2023-04-21T02:33:19.655Z,96592.97
2023-04-21T02:36:10.175Z,96602.69
2023-04-21T02:38:58.512Z,96596.19
2023-04-21T02:41:46.942Z,96582.34
2023-04-21T02:44:35.296Z,96579.94
2023-04-21T02:47:25.055Z,96579.94
2023-04-21T02:50:14.797Z,96576.75
2023-04-21T02:53:03.367Z,96578.34
2023-04-21T02:55:51.729Z,96577.75
2023-04-21T02:58:40.676Z,96569.81
2023-04-21T03:01:29.068Z,96562.31
2023-04-21T03:04:19.819Z,96570.13
2023-04-21T03:07:12.991Z,96572.88
2023-04-21T03:10:01.488Z,96583.13
2023-04-21T03:12:51.335Z,96574.34
2023-04-21T03:15:39.709Z,96560.97
2023-04-21T03:18:28.271Z,96568.13
2023-04-21T03:21:18.060Z,96571.19
2023-04-21T03:24:07.512Z,96557.25
2023-04-21T03:26:57.053Z,96575.97
2023-04-21T03:29:45.569Z,96577.56
2023-04-21T03:32:34.090Z,96583.97
2023-04-21T03:35:22.570Z,96581.31
2023-04-21T03:38:12.352Z,96579.22
2023-04-21T03:41:00.881Z,96578.41
2023-04-21T03:44:14.598Z,96578.16
2023-04-21T03:47:03.768Z,96571.81
2023-04-21T03:49:52.170Z,96576.63
2023-04-21T03:52:41.021Z,96576.13
2023-04-21T03:55:30.775Z,96579.88
2023-04-21T03:58:19.453Z,96578.56
2023-04-21T04:01:08.036Z,96587.09
2023-04-21T04:03:56.776Z,96578.28
2023-04-21T04:06:45.388Z,96581.97
2023-04-21T04:09:33.849Z,96594.31
2023-04-21T04:12:23.626Z,96585.00
2023-04-21T04:15:12.379Z,96581.28
2023-04-21T04:18:01.736Z,96578.91
2023-04-21T04:20:50.287Z,96586.88
2023-04-21T04:23:38.967Z,96585.56
2023-04-21T04:26:27.499Z,96592.78
2023-04-21T04:29:18.004Z,96590.16
2023-04-21T04:32:06.732Z,96594.47
2023-04-21T04:34:55.868Z,96592.03
2023-04-21T04:37:45.578Z,96583.31
2023-04-21T04:40:34.056Z,96582.84
2023-04-21T04:43:22.629Z,96577.97
2023-04-21T04:46:13.200Z,96573.78
2023-04-21T04:49:01.906Z,96567.41
2023-04-21T04:51:50.367Z,96572.97
2023-04-21T04:54:38.786Z,96569.22
2023-04-21T04:57:27.184Z,96570.03
2023-04-21T05:00:16.109Z,96568.66
2023-04-21T05:03:06.101Z,96565.47
2023-04-21T05:05:54.653Z,96563.56
2023-04-21T05:08:43.031Z,96574.25
2023-04-21T05:11:31.517Z,96580.38
2023-04-21T05:14:20.174Z,96580.59
2023-04-21T05:17:09.075Z,96589.13
2023-04-21T05:19:58.852Z,96590.97
2023-04-21T05:22:47.267Z,96598.16
2023-04-21T05:25:35.853Z,96596.28
2023-04-21T05:28:24.294Z,96607.09
2023-04-21T05:31:12.675Z,96612.00
2023-04-21T05:34:01.066Z,96616.53
2023-04-21T05:36:52.312Z,96614.47
2023-04-21T05:39:40.797Z,96605.38
2023-04-21T05:42:29.166Z,96609.78
2023-04-21T05:45:17.748Z,96612.69
2023-04-21T05:48:06.985Z,96619.88
2023-04-21T05:50:55.487Z,96617.25
2023-04-21T05:53:47.551Z,96626.13
2023-04-21T05:56:36.059Z,96615.72
2023-04-21T05:59:26.409Z,96618.56
2023-04-21T06:02:14.906Z,96615.13
2023-04-21T06:05:03.859Z,96614.03
2023-04-21T06:07:52.445Z,96607.78
2023-04-21T06:10:42.706Z,96594.81
2023-04-21T06:13:31.064Z,96607.19
2023-04-21T06:16:19.506Z,96606.41
2023-04-21T06:19:07.958Z,96603.00
2023-04-21T06:21:57.789Z,96607.91
2023-04-21T06:24:46.210Z,96601.47
2023-04-21T06:27:36.067Z,96609.97
2023-04-21T06:30:24.950Z,96608.66
2023-04-21T06:33:13.405Z,96601.50
2023-04-21T06:36:01.863Z,96596.06
2023-04-21T06:38:50.392Z,96613.56
2023-04-21T06:41:38.899Z,96604.31
2023-04-21T06:44:29.236Z,96607.09
2023-04-21T06:47:17.864Z,96603.53
2023-04-21T06:50:07.531Z,96597.59
2023-04-21T06:52:56.021Z,96595.84
2023-04-21T06:55:44.433Z,96601.22
2023-04-21T06:58:32.866Z,96599.53
2023-04-21T07:01:24.369Z,96604.63
2023-04-21T07:04:12.998Z,96599.63
2023-04-21T07:07:03.094Z,96606.38
2023-04-21T07:09:51.832Z,96600.66
2023-04-21T07:12:40.247Z,96611.44
2023-04-21T07:15:28.766Z,96611.19
2023-04-21T07:18:18.685Z,96603.47
2023-04-21T07:21:07.262Z,96601.88
2023-04-21T07:23:55.656Z,96604.56
2023-04-21T07:26:44.120Z,96611.94
2023-04-21T07:29:32.589Z,96614.94
2023-04-21T07:32:21.198Z,96613.66
2023-04-21T07:35:11.403Z,96614.44
2023-04-21T07:37:59.868Z,96606.44
2023-04-21T07:40:48.282Z,96618.88
2023-04-21T07:43:36.819Z,96622.19
2023-04-21T07:46:30.306Z,96616.44
2023-04-21T07:49:18.893Z,96616.22
2023-04-21T07:52:08.805Z,96615.25
2023-04-21T07:54:57.411Z,96606.19
2023-04-21T07:57:45.881Z,96609.66
2023-04-21T08:00:34.569Z,96612.63
2023-04-21T08:03:24.457Z,96605.69
2023-04-21T08:06:13.344Z,96610.25
2023-04-21T08:09:03.530Z,96599.66
2023-04-21T08:11:52.065Z,96601.50
2023-04-21T08:14:40.996Z,96600.28
2023-04-21T08:17:29.502Z,96599.28
2023-04-21T08:20:18.039Z,96588.00
2023-04-21T08:23:06.562Z,96596.50
2023-04-21T08:25:56.455Z,96593.56
2023-04-21T08:28:44.891Z,96592.22
2023-04-21T08:31:33.905Z,96597.47
2023-04-21T08:34:24.192Z,96593.19
2023-04-21T08:37:14.237Z,96586.22
2023-04-21T08:40:02.666Z,96589.41
2023-04-21T08:42:52.456Z,96586.09
2023-04-21T08:45:41.315Z,96592.78
2023-04-21T08:48:31.055Z,96582.56
2023-04-21T08:51:24.389Z,96585.09
2023-04-21T08:54:13.404Z,96588.19
2023-04-21T08:57:14.164Z,96581.97
2023-04-21T09:00:07.918Z,96591.34
2023-04-21T09:03:01.155Z,96582.44
2023-04-21T09:05:59.108Z,96582.50
2023-04-21T09:08:56.751Z,96591.41
2023-04-21T09:12:03.533Z,96587.31
2023-04-21T09:14:52.423Z,96593.69
2023-04-21T09:17:42.274Z,96582.44
2023-04-21T09:20:31.394Z,96582.66
2023-04-21T09:23:19.883Z,96590.22
2023-04-21T09:26:08.485Z,96586.78
2023-04-21T09:28:56.885Z,96576.09
2023-04-21T09:31:45.886Z,96582.75
2023-04-21T09:34:42.752Z,96578.97
2023-04-21T09:37:33.822Z,96569.81
2023-04-21T09:40:22.275Z,96581.84
2023-04-21T09:43:11.864Z,96581.69
2023-04-21T09:46:01.693Z,96574.09
2023-04-21T09:48:50.145Z,96581.25
2023-04-21T09:52:09.706Z,96577.56
2023-04-21T09:54:52.095Z,96583.31
2023-04-21T09:57:43.000Z,96582.97
2023-04-21T10:00:31.435Z,96578.03
2023-04-21T10:03:21.569Z,96583.75
2023-04-21T10:06:10.378Z,96574.38
2023-04-21T10:09:00.459Z,96576.59
2023-04-21T10:11:48.928Z,96578.59
2023-04-21T10:14:37.436Z,96573.19
2023-04-21T10:17:27.409Z,96566.50
2023-04-21T10:20:16.776Z,96566.00
2023-04-21T10:23:05.287Z,96555.16
2023-04-21T10:25:55.391Z,96561.03
2023-04-21T10:28:46.670Z,96553.53
2023-04-21T10:32:00.405Z,96552.31
2023-04-21T10:34:49.107Z,96540.22
2023-04-21T10:37:37.816Z,96545.09
2023-04-21T10:43:49.605Z,96541.00
2023-04-21T10:46:39.728Z,96531.66
2023-04-21T10:49:30.329Z,96537.53
2023-04-21T10:52:20.979Z,96529.94
2023-04-21T10:55:12.740Z,96533.66
2023-04-21T10:58:03.697Z,96527.81
2023-04-21T11:00:56.515Z,96524.44
2023-04-21T11:03:45.162Z,96524.16
2023-04-21T11:06:33.808Z,96524.88
2023-04-21T11:09:22.233Z,96508.19
2023-04-21T11:12:11.710Z,96507.41
2023-04-21T11:15:00.238Z,96507.41
2023-04-21T11:17:51.298Z,96503.13
2023-04-21T11:20:41.614Z,96500.19
2023-04-21T11:23:30.206Z,96498.19
2023-04-21T11:26:19.306Z,96484.44
2023-04-21T11:29:09.297Z,96494.13
2023-04-21T11:31:59.099Z,96493.00
2023-04-21T11:34:48.975Z,96483.09
2023-04-21T11:37:37.904Z,96488.50
2023-04-21T11:40:26.301Z,96483.19
2023-04-21T11:43:14.785Z,96488.34
2023-04-21T11:46:13.994Z,96480.69
2023-04-21T11:49:04.450Z,96482.94
2023-04-21T11:51:54.259Z,96478.97
2023-04-21T11:54:45.651Z,96488.22
2023-04-21T11:57:35.166Z,96481.41
2023-04-21T12:00:23.635Z,96473.84
2023-04-21T12:03:12.617Z,96496.69
2023-04-21T12:06:01.212Z,96477.66
2023-04-21T12:08:55.682Z,96475.22
2023-04-21T12:11:44.203Z,96465.63
2023-04-21T12:14:34.704Z,96477.41
2023-04-21T12:17:23.233Z,96470.19
2023-04-21T12:20:12.855Z,96467.81
2023-04-21T12:23:01.299Z,96471.75
2023-04-21T12:25:51.532Z,96460.91
2023-04-21T12:28:40.275Z,96458.72
2023-04-21T12:31:28.889Z,96458.63
2023-04-21T12:34:17.388Z,96459.78
2023-04-21T12:37:06.163Z,96463.13
2023-04-21T12:39:54.606Z,96456.53
2023-04-21T12:42:44.424Z,96460.03
2023-04-21T12:45:33.159Z,96456.81
2023-04-21T12:48:21.713Z,96455.81
2023-04-21T12:51:10.730Z,96456.63
2023-04-21T12:53:59.142Z,96461.50
2023-04-21T12:56:47.574Z,96448.72
2023-04-21T12:59:37.308Z,96452.56
2023-04-21T13:02:26.119Z,96445.03
2023-04-21T13:05:15.112Z,96443.78
2023-04-21T13:08:03.512Z,96443.78
2023-04-21T13:10:53.405Z,96444.38
2023-04-21T13:13:44.649Z,96452.66
2023-04-21T13:16:34.479Z,96444.16
2023-04-21T13:19:23.011Z,96442.94
2023-04-21T13:22:11.458Z,96431.13
2023-04-21T13:24:59.881Z,96433.44
2023-04-21T13:27:48.350Z,96432.28
2023-04-21T13:30:36.984Z,96431.66
2023-04-21T13:33:26.963Z,96433.09
2023-04-21T13:36:15.558Z,96426.94
2023-04-21T13:39:04.687Z,96423.84
2023-04-21T13:41:54.364Z,96417.81
2023-04-21T13:44:43.001Z,96411.97
2023-04-21T13:47:34.487Z,96420.94
2023-04-21T13:50:24.372Z,96412.38
2023-04-21T13:53:14.104Z,96413.88
2023-04-21T13:56:02.596Z,96408.78
2023-04-21T13:58:51.100Z,96406.66
2023-04-21T14:01:39.555Z,96407.53
2023-04-21T14:04:28.210Z,96409.03
2023-04-21T14:07:19.522Z,96398.28
2023-04-21T14:10:09.120Z,96402.19
2023-04-21T14:12:57.560Z,96397.28
2023-04-21T14:15:46.089Z,96400.50
2023-04-21T14:18:34.587Z,96392.91
2023-04-21T14:21:23.015Z,96399.34
2023-04-21T14:24:12.870Z,96389.63
2023-04-21T14:27:01.296Z,96396.75
2023-04-21T14:29:49.760Z,96384.38
2023-04-21T14:32:38.626Z,96382.28
2023-04-21T14:35:27.323Z,96386.25
2023-04-21T14:38:15.751Z,96380.94
2023-04-21T14:41:05.926Z,96376.53
2023-04-21T14:43:56.596Z,96377.63
2023-04-21T14:46:53.324Z,96373.72
2023-04-21T14:49:54.676Z,96377.63
2023-04-21T14:52:43.899Z,96373.94
2023-04-21T14:55:32.309Z,96362.50
2023-04-21T14:58:22.166Z,96360.97
2023-04-21T15:01:11.327Z,96356.16
2023-04-21T15:04:00.672Z,96359.47
2023-04-21T15:06:49.451Z,96354.81
2023-04-21T15:09:39.083Z,96348.53
2023-04-21T15:12:27.561Z,96342.31
2023-04-21T15:15:17.403Z,96349.06
2023-04-21T15:18:05.914Z,96343.72
2023-04-21T15:20:54.354Z,96352.47
2023-04-21T15:23:42.878Z,96343.16
2023-04-21T15:26:31.426Z,96350.94
2023-04-21T15:29:19.838Z,96351.63
2023-04-21T15:32:09.702Z,96345.47
2023-04-21T15:34:58.100Z,96349.22
2023-04-21T15:37:46.537Z,96348.13
2023-04-21T15:40:37.518Z,96345.31
2023-04-21T15:43:30.209Z,96351.03
2023-04-21T15:46:18.709Z,96352.25
2023-04-21T15:49:08.520Z,96345.66
2023-04-21T15:51:57.240Z,96351.13
2023-04-21T15:54:47.100Z,96346.88
2023-04-21T15:57:35.552Z,96344.84
2023-04-21T16:00:24.630Z,96344.09
2023-04-21T16:03:13.292Z,96344.22
2023-04-21T16:06:03.523Z,96346.31
2023-04-21T16:08:52.371Z,96343.53
2023-04-21T16:11:40.955Z,96344.59
2023-04-21T16:14:39.326Z,96343.84
2023-04-21T16:17:36.593Z,96341.09
2023-04-21T16:20:25.887Z,96344.59
2023-04-21T16:23:16.534Z,96332.50
2023-04-21T16:26:05.962Z,96334.34
2023-04-21T16:28:55.553Z,96327.91
2023-04-21T16:31:44.017Z,96319.44
2023-04-21T16:34:32.567Z,96321.47
2023-04-21T16:37:20.948Z,96319.47
2023-04-21T16:40:11.979Z,96312.66
2023-04-21T16:43:00.550Z,96314.84
2023-04-21T16:45:49.177Z,96308.69
2023-04-21T16:48:37.846Z,96302.38
2023-04-21T16:51:28.503Z,96306.09
2023-04-21T16:54:17.045Z,96303.13
2023-04-21T16:57:07.111Z,96306.88
2023-04-21T16:59:55.634Z,96310.75
2023-04-21T17:02:44.294Z,96307.41
2023-04-21T17:05:32.815Z,96308.16
2023-04-21T17:08:21.302Z,96306.50
2023-04-21T17:11:09.693Z,96306.31
2023-04-21T17:13:59.580Z,96312.34
2023-04-21T17:16:48.168Z,96312.22
2023-04-21T17:19:36.841Z,96315.38
2023-04-21T17:22:25.244Z,96316.69
2023-04-21T17:25:13.769Z,96315.78
2023-04-21T17:28:02.430Z,96313.38
2023-04-21T17:31:00.240Z,96314.16
2023-04-21T17:33:57.247Z,96318.22
2023-04-21T17:36:45.748Z,96315.91
2023-04-21T17:39:34.120Z,96316.84
2023-04-21T17:42:22.739Z,96319.72
2023-04-21T17:45:12.029Z,96318.63
2023-04-21T17:48:01.913Z,96318.63
2023-04-21T17:50:50.486Z,96324.06
2023-04-21T17:53:39.180Z,96323.50
2023-04-21T17:56:27.823Z,96328.34
2023-04-21T17:59:16.448Z,96331.38
2023-04-21T18:02:05.337Z,96331.22
2023-04-21T18:04:55.425Z,96331.38
2023-04-21T18:07:43.906Z,96335.66
2023-04-21T18:10:32.426Z,96340.34
2023-04-21T18:13:21.012Z,96338.66
2023-04-21T18:16:09.642Z,96346.53
2023-04-21T18:18:58.080Z,96339.72
2023-04-21T18:21:47.976Z,96348.09
2023-04-21T18:24:36.722Z,96349.75
2023-04-21T18:27:25.361Z,96349.75
2023-04-21T18:30:14.132Z,96353.59
2023-04-21T18:33:02.709Z,96362.47
2023-04-21T18:35:51.332Z,96358.28
2023-04-21T18:38:41.166Z,96364.09
2023-04-21T18:41:29.764Z,96370.31
2023-04-21T18:44:18.262Z,96368.47
2023-04-21T18:47:06.751Z,96380.13
2023-04-21T18:49:55.421Z,96379.84
2023-04-21T18:52:43.908Z,96390.34
2023-04-21T18:55:33.914Z,96393.00
2023-04-21T18:58:22.623Z,96398.66
2023-04-21T19:01:11.296Z,96398.06
2023-04-21T19:04:00.023Z,96400.69
2023-04-21T19:06:49.482Z,96405.09
2023-04-21T19:09:37.940Z,96406.16
2023-04-21T19:12:28.874Z,96407.78
2023-04-21T19:15:17.355Z,96399.91
2023-04-21T19:18:06.553Z,96402.97
2023-04-21T19:20:55.140Z,96404.91
2023-04-21T19:23:43.533Z,96410.53
2023-04-21T19:26:31.998Z,96413.06
2023-04-21T19:29:21.770Z,96411.28
2023-04-21T19:32:10.188Z,96410.50
2023-04-21T19:34:58.622Z,96416.94
2023-04-21T19:37:47.126Z,96413.78
2023-04-21T19:40:35.521Z,96414.59
2023-04-21T19:43:24.069Z,96409.84
2023-04-21T19:46:14.051Z,96412.69
2023-04-21T19:49:02.684Z,96410.63
2023-04-21T19:51:51.732Z,96411.56
2023-04-21T19:54:40.451Z,96409.53
2023-04-21T19:57:29.024Z,96409.53
2023-04-21T20:00:18.217Z,96407.94
2023-04-21T20:03:08.952Z,96415.16
2023-04-21T20:05:57.610Z,96417.00
2023-04-21T20:08:46.171Z,96414.50
2023-04-21T20:11:34.806Z,96428.16
2023-04-21T20:14:23.356Z,96428.38
2023-04-21T20:17:11.737Z,96425.34
2023-04-21T20:20:02.026Z,96432.09
2023-04-21T20:22:50.494Z,96437.25
2023-04-21T20:25:39.164Z,96436.69
2023-04-21T20:28:28.257Z,96438.38
2023-04-21T20:31:18.010Z,96441.84
2023-04-21T20:34:06.768Z,96449.44
2023-04-21T20:36:56.931Z,96449.53
2023-04-21T20:39:46.760Z,96448.75
2023-04-21T20:42:35.201Z,96448.75
2023-04-21T20:45:23.823Z,96444.22
2023-04-21T20:48:12.265Z,96451.66
2023-04-21T20:51:01.150Z,96452.44
2023-04-21T20:53:50.945Z,96452.59
2023-04-21T20:56:39.628Z,96453.25
2023-04-21T20:59:28.068Z,96461.34
2023-04-21T21:02:16.593Z,96472.28
2023-04-21T21:05:05.422Z,96487.22
2023-04-21T21:07:54.123Z,96479.88
2023-04-21T21:10:43.870Z,96476.41
2023-04-21T21:13:32.491Z,96470.13
2023-04-21T21:16:21.008Z,96467.25
2023-04-21T21:19:10.023Z,96478.97
2023-04-21T21:21:58.423Z,96479.88
2023-04-21T21:24:46.825Z,96493.09
2023-04-21T21:27:36.626Z,96492.56
2023-04-21T21:30:25.050Z,96503.56
2023-04-21T21:33:13.526Z,96489.78
2023-04-21T21:36:01.968Z,96488.22
2023-04-21T21:38:50.397Z,96486.75
2023-04-21T21:41:39.753Z,96486.84
2023-04-21T21:44:29.580Z,96479.53
2023-04-21T21:47:18.223Z,96483.31
2023-04-21T21:50:07.710Z,96479.53
2023-04-21T21:52:56.148Z,96475.91
2023-04-21T21:55:44.615Z,96468.41
2023-04-21T21:58:33.100Z,96453.66
2023-04-21T22:01:23.100Z,96454.31
2023-04-21T22:04:11.679Z,96457.22
2023-04-21T22:07:00.179Z,96453.41
2023-04-21T22:09:48.613Z,96456.41
2023-04-21T22:12:37.199Z,96453.72
2023-04-21T22:15:25.586Z,96457.22
2023-04-21T22:18:18.372Z,96457.66
2023-04-21T22:21:06.935Z,96461.97
2023-04-21T22:23:55.445Z,96466.44
2023-04-21T22:26:44.142Z,96464.91
2023-04-21T22:29:32.560Z,96458.28
2023-04-21T22:32:20.981Z,96461.28
2023-04-21T22:35:10.974Z,96456.03
2023-04-21T22:37:59.356Z,96465.06
2023-04-21T22:40:48.061Z,96456.50
2023-04-21T22:43:36.476Z,96469.03
2023-04-21T22:46:25.026Z,96468.56
2023-04-21T22:49:14.284Z,96467.94
2023-04-21T22:52:04.078Z,96469.69
2023-04-21T22:54:52.435Z,96463.81
2023-04-21T22:57:40.939Z,96461.16
2023-04-21T23:00:29.323Z,96455.91
2023-04-21T23:03:18.022Z,96452.41
2023-04-21T23:06:06.970Z,96455.75
2023-04-21T23:08:56.703Z,96453.53
2023-04-21T23:11:45.102Z,96447.34
2023-04-21T23:14:33.462Z,96451.78
2023-04-21T23:17:22.168Z,96456.84
2023-04-21T23:20:11.599Z,96459.53
2023-04-21T23:22:59.994Z,96456.97
2023-04-21T23:25:49.777Z,96456.22
2023-04-21T23:28:38.278Z,96463.66
2023-04-21T23:31:26.994Z,96475.22
2023-04-21T23:34:15.792Z,96468.59
2023-04-21T23:37:04.159Z,96463.31
2023-04-21T23:39:52.528Z,96460.31
2023-04-21T23:42:42.312Z,96465.22
2023-04-21T23:45:36.055Z,96468.03
2023-04-21T23:48:24.482Z,96465.03
2023-04-21T23:51:13.018Z,96464.50
2023-04-21T23:54:01.698Z,96468.63
2023-04-21T23:56:50.080Z,96469.13
2023-04-21T23:59:40.176Z,96457.22
